Terminal Aerodrome Forecast
Issued by NWS

Home | Current Version | Previous Version | Text Only | Print | Product List | Glossary On
Versions: 1 2 3 4 5 6 7 8 9 10 11 12 13 14 15 16 17 18 19 20 21 22 23
000
FTUS46 KMTR 181726
TAFSNS
TAF
KSNS 181726Z 1818/1918 12004KT P6SM FEW010 SCT035
     FM181900 14006KT P6SM OVC025
     FM182100 20007KT P6SM VCSH BKN015 OVC040
     FM182300 26008KT P6SM -SHRA BKN010 OVC030
     FM190300 27003KT P6SM -SHRA SCT010 OVC025
     FM191000 26003KT P6SM -SHRA SCT012 SCT050 OVC200
     FM191400 27004KT P6SM VCSH SCT012 BKN040=

USA.gov is the U.S. government's official web portal to all federal, state and local government web resources and services.